sensor_id;sensor_type;location;lat;lon;timestamp;pressure;altitude;pressure_sealevel;temperature;humidity
69957;BME280;57283;54.816;9.482;2022-12-07T00:01:05;100751.75;;;-0.83;100.00
69957;BME280;57283;54.816;9.482;2022-12-07T00:03:34;100769.81;;;-0.77;100.00
69957;BME280;57283;54.816;9.482;2022-12-07T00:06:04;100767.31;;;-0.74;100.00
69957;BME280;57283;54.816;9.482;2022-12-07T00:08:33;100677.56;;;-1.20;100.00
69957;BME280;57283;54.816;9.482;2022-12-07T00:11:04;100761.72;;;-0.53;100.00
69957;BME280;57283;54.816;9.482;2022-12-07T00:13:33;100753.38;;;-0.41;100.00
69957;BME280;57283;54.816;9.482;2022-12-07T00:16:02;100763.81;;;-0.30;100.00
69957;BME280;57283;54.816;9.482;2022-12-07T00:18:31;100761.47;;;-0.20;100.00
69957;BME280;57283;54.816;9.482;2022-12-07T00:21:00;100753.16;;;-0.05;100.00
69957;BME280;57283;54.816;9.482;2022-12-07T00:23:29;100767.75;;;0.00;100.00
69957;BME280;57283;54.816;9.482;2022-12-07T00:26:05;100768.66;;;0.03;100.00
69957;BME280;57283;54.816;9.482;2022-12-07T00:28:33;100778.19;;;0.10;100.00
69957;BME280;57283;54.816;9.482;2022-12-07T00:31:03;100774.88;;;0.15;100.00
69957;BME280;57283;54.816;9.482;2022-12-07T00:33:32;100779.22;;;0.21;100.00
69957;BME280;57283;54.816;9.482;2022-12-07T00:36:00;100769.06;;;0.27;100.00
69957;BME280;57283;54.816;9.482;2022-12-07T00:38:32;100774.31;;;0.36;100.00
69957;BME280;57283;54.816;9.482;2022-12-07T00:41:02;100768.34;;;0.37;100.00
69957;BME280;57283;54.816;9.482;2022-12-07T00:43:31;100772.84;;;0.50;100.00
69957;BME280;57283;54.816;9.482;2022-12-07T00:46:00;100766.97;;;0.59;100.00
69957;BME280;57283;54.816;9.482;2022-12-07T00:48:28;100764.28;;;0.50;100.00
69957;BME280;57283;54.816;9.482;2022-12-07T00:50:56;100762.41;;;0.41;100.00
69957;BME280;57283;54.816;9.482;2022-12-07T00:53:24;100767.88;;;0.62;100.00
69957;BME280;57283;54.816;9.482;2022-12-07T00:55:52;100753.41;;;0.72;100.00
69957;BME280;57283;54.816;9.482;2022-12-07T00:58:22;100752.56;;;0.73;100.00
69957;BME280;57283;54.816;9.482;2022-12-07T01:00:51;100754.91;;;0.56;100.00
69957;BME280;57283;54.816;9.482;2022-12-07T01:03:19;100766.09;;;0.58;100.00
69957;BME280;57283;54.816;9.482;2022-12-07T01:05:51;100719.53;;;0.37;100.00
69957;BME280;57283;54.816;9.482;2022-12-07T01:08:20;100753.16;;;0.52;100.00
69957;BME280;57283;54.816;9.482;2022-12-07T01:10:48;100754.84;;;0.52;100.00
69957;BME280;57283;54.816;9.482;2022-12-07T01:13:16;100759.22;;;0.57;100.00
69957;BME280;57283;54.816;9.482;2022-12-07T01:15:44;100762.69;;;0.59;100.00
69957;BME280;57283;54.816;9.482;2022-12-07T01:18:14;100762.56;;;0.52;100.00
69957;BME280;57283;54.816;9.482;2022-12-07T01:20:42;100760.63;;;0.37;100.00
69957;BME280;57283;54.816;9.482;2022-12-07T01:23:09;100760.59;;;0.34;100.00
69957;BME280;57283;54.816;9.482;2022-12-07T01:25:37;100761.44;;;0.31;100.00
69957;BME280;57283;54.816;9.482;2022-12-07T01:28:05;100753.47;;;0.15;100.00
69957;BME280;57283;54.816;9.482;2022-12-07T01:30:33;100770.56;;;0.13;100.00
69957;BME280;57283;54.816;9.482;2022-12-07T01:33:01;100762.94;;;0.19;100.00
69957;BME280;57283;54.816;9.482;2022-12-07T01:35:33;100764.66;;;0.20;100.00
69957;BME280;57283;54.816;9.482;2022-12-07T01:38:01;100631.72;;;-0.55;100.00
69957;BME280;57283;54.816;9.482;2022-12-07T01:40:29;100749.94;;;0.08;100.00
69957;BME280;57283;54.816;9.482;2022-12-07T01:42:57;100752.38;;;-0.01;100.00
69957;BME280;57283;54.816;9.482;2022-12-07T01:45:42;100750.66;;;0.01;100.00
69957;BME280;57283;54.816;9.482;2022-12-07T01:48:12;100756.63;;;-0.02;100.00
69957;BME280;57283;54.816;9.482;2022-12-07T01:50:47;100737.56;;;-0.16;100.00
69957;BME280;57283;54.816;9.482;2022-12-07T01:53:16;100744.41;;;-0.15;100.00
69957;BME280;57283;54.816;9.482;2022-12-07T01:55:48;100755.50;;;-0.16;100.00
69957;BME280;57283;54.816;9.482;2022-12-07T01:58:20;100738.97;;;-0.33;100.00
69957;BME280;57283;54.816;9.482;2022-12-07T02:00:48;100735.53;;;-0.35;100.00
69957;BME280;57283;54.816;9.482;2022-12-07T02:03:19;100743.25;;;-0.35;100.00
69957;BME280;57283;54.816;9.482;2022-12-07T02:05:51;100744.66;;;-0.49;100.00
69957;BME280;57283;54.816;9.482;2022-12-07T02:08:20;100744.50;;;-0.60;100.00
69957;BME280;57283;54.816;9.482;2022-12-07T02:10:49;100752.06;;;-0.67;100.00
69957;BME280;57283;54.816;9.482;2022-12-07T02:13:19;100745.00;;;-0.78;100.00
69957;BME280;57283;54.816;9.482;2022-12-07T02:16:14;100751.69;;;-0.86;100.00
69957;BME280;57283;54.816;9.482;2022-12-07T02:18:56;100745.44;;;-0.98;100.00
69957;BME280;57283;54.816;9.482;2022-12-07T02:21:35;100751.34;;;-1.04;100.00
69957;BME280;57283;54.816;9.482;2022-12-07T02:24:18;100741.88;;;-1.07;100.00
69957;BME280;57283;54.816;9.482;2022-12-07T02:27:38;100743.69;;;-1.02;100.00
69957;BME280;57283;54.816;9.482;2022-12-07T02:30:10;100737.66;;;-1.04;100.00
69957;BME280;57283;54.816;9.482;2022-12-07T02:32:47;100736.75;;;-1.07;100.00
69957;BME280;57283;54.816;9.482;2022-12-07T02:35:19;100718.56;;;-1.20;100.00
69957;BME280;57283;54.816;9.482;2022-12-07T02:37:55;100741.78;;;-1.11;100.00
69957;BME280;57283;54.816;9.482;2022-12-07T02:40:29;100743.50;;;-1.10;100.00
69957;BME280;57283;54.816;9.482;2022-12-07T02:43:03;100751.13;;;-1.13;100.00
69957;BME280;57283;54.816;9.482;2022-12-07T02:45:35;100741.75;;;-1.13;100.00
69957;BME280;57283;54.816;9.482;2022-12-07T02:48:06;100749.53;;;-1.08;100.00
69957;BME280;57283;54.816;9.482;2022-12-07T02:50:35;100732.38;;;-1.12;100.00
69957;BME280;57283;54.816;9.482;2022-12-07T02:53:02;100744.53;;;-1.02;100.00
69957;BME280;57283;54.816;9.482;2022-12-07T02:55:34;100735.91;;;-1.07;100.00
69957;BME280;57283;54.816;9.482;2022-12-07T02:58:18;100742.72;;;-1.08;100.00
69957;BME280;57283;54.816;9.482;2022-12-07T03:01:02;100698.72;;;-1.29;100.00
69957;BME280;57283;54.816;9.482;2022-12-07T03:03:34;100740.94;;;-1.10;100.00
69957;BME280;57283;54.816;9.482;2022-12-07T03:06:11;100737.41;;;-1.15;100.00
69957;BME280;57283;54.816;9.482;2022-12-07T03:08:48;100733.13;;;-1.18;100.00
69957;BME280;57283;54.816;9.482;2022-12-07T03:11:24;100727.97;;;-1.19;100.00
69957;BME280;57283;54.816;9.482;2022-12-07T03:13:56;100720.97;;;-1.26;100.00
69957;BME280;57283;54.816;9.482;2022-12-07T03:16:33;100678.59;;;-1.53;100.00
69957;BME280;57283;54.816;9.482;2022-12-07T03:19:05;100719.19;;;-1.30;100.00
69957;BME280;57283;54.816;9.482;2022-12-07T03:21:37;100715.75;;;-1.31;100.00
69957;BME280;57283;54.816;9.482;2022-12-07T03:24:09;100709.72;;;-1.34;100.00
69957;BME280;57283;54.816;9.482;2022-12-07T03:26:41;100712.28;;;-1.33;100.00
69957;BME280;57283;54.816;9.482;2022-12-07T03:29:13;100703.03;;;-1.26;100.00
69957;BME280;57283;54.816;9.482;2022-12-07T03:31:47;100693.53;;;-1.32;100.00
69957;BME280;57283;54.816;9.482;2022-12-07T03:34:18;100688.31;;;-1.36;100.00
69957;BME280;57283;54.816;9.482;2022-12-07T03:36:50;100696.91;;;-1.34;100.00
69957;BME280;57283;54.816;9.482;2022-12-07T03:39:23;100701.25;;;-1.30;100.00
69957;BME280;57283;54.816;9.482;2022-12-07T03:41:54;100697.84;;;-1.29;100.00
69957;BME280;57283;54.816;9.482;2022-12-07T03:44:22;100687.53;;;-1.32;100.00
69957;BME280;57283;54.816;9.482;2022-12-07T03:47:00;100690.19;;;-1.28;100.00
69957;BME280;57283;54.816;9.482;2022-12-07T03:49:32;100642.78;;;-1.50;100.00
69957;BME280;57283;54.816;9.482;2022-12-07T03:52:12;100673.78;;;-1.37;100.00
69957;BME280;57283;54.816;9.482;2022-12-07T03:54:49;100679.09;;;-1.28;100.00
69957;BME280;57283;54.816;9.482;2022-12-07T03:57:20;100665.22;;;-1.39;100.00
69957;BME280;57283;54.816;9.482;2022-12-07T03:59:49;100676.41;;;-1.34;100.00
69957;BME280;57283;54.816;9.482;2022-12-07T04:02:18;100677.19;;;-1.38;100.00
69957;BME280;57283;54.816;9.482;2022-12-07T04:04:47;100639.09;;;-1.64;100.00
69957;BME280;57283;54.816;9.482;2022-12-07T04:07:15;100676.28;;;-1.41;100.00
69957;BME280;57283;54.816;9.482;2022-12-07T04:09:43;100678.03;;;-1.38;100.00
69957;BME280;57283;54.816;9.482;2022-12-07T04:12:10;100672.03;;;-1.40;100.00
69957;BME280;57283;54.816;9.482;2022-12-07T04:14:38;100674.69;;;-1.35;100.00
69957;BME280;57283;54.816;9.482;2022-12-07T04:17:06;100667.00;;;-1.35;100.00
69957;BME280;57283;54.816;9.482;2022-12-07T04:19:36;100672.22;;;-1.29;100.00
69957;BME280;57283;54.816;9.482;2022-12-07T04:22:04;100627.31;;;-1.56;100.00
69957;BME280;57283;54.816;9.482;2022-12-07T04:24:32;100667.09;;;-1.29;100.00
69957;BME280;57283;54.816;9.482;2022-12-07T04:27:00;100666.31;;;-1.27;100.00
69957;BME280;57283;54.816;9.482;2022-12-07T04:29:28;100658.66;;;-1.25;100.00
69957;BME280;57283;54.816;9.482;2022-12-07T04:31:56;100659.56;;;-1.23;100.00
69957;BME280;57283;54.816;9.482;2022-12-07T04:34:24;100666.56;;;-1.13;100.00
69957;BME280;57283;54.816;9.482;2022-12-07T04:36:53;100657.91;;;-1.20;100.00
69957;BME280;57283;54.816;9.482;2022-12-07T04:39:23;100664.94;;;-1.10;100.00
69957;BME280;57283;54.816;9.482;2022-12-07T04:41:51;100659.06;;;-1.04;100.00
69957;BME280;57283;54.816;9.482;2022-12-07T04:44:20;100634.91;;;-1.17;100.00
69957;BME280;57283;54.816;9.482;2022-12-07T04:46:48;100649.75;;;-0.99;100.00
69957;BME280;57283;54.816;9.482;2022-12-07T04:49:17;100645.47;;;-1.00;100.00
69957;BME280;57283;54.816;9.482;2022-12-07T04:51:46;100653.19;;;-0.98;100.00
69957;BME280;57283;54.816;9.482;2022-12-07T04:54:16;100640.31;;;-1.00;100.00
69957;BME280;57283;54.816;9.482;2022-12-07T04:56:44;100648.97;;;-0.95;100.00
69957;BME280;57283;54.816;9.482;2022-12-07T04:59:13;100647.28;;;-0.94;100.00
69957;BME280;57283;54.816;9.482;2022-12-07T05:01:42;100595.38;;;-1.29;100.00
69957;BME280;57283;54.816;9.482;2022-12-07T05:04:10;100657.50;;;-0.96;100.00
69957;BME280;57283;54.816;9.482;2022-12-07T05:06:38;100657.63;;;-0.90;100.00
69957;BME280;57283;54.816;9.482;2022-12-07T05:09:06;100648.34;;;-0.82;100.00
69957;BME280;57283;54.816;9.482;2022-12-07T05:11:35;100650.16;;;-0.76;100.00
69957;BME280;57283;54.816;9.482;2022-12-07T05:14:09;100646.09;;;-0.63;100.00
69957;BME280;57283;54.816;9.482;2022-12-07T05:16:37;100587.53;;;-0.92;100.00
69957;BME280;57283;54.816;9.482;2022-12-07T05:19:06;100651.53;;;-0.45;100.00
69957;BME280;57283;54.816;9.482;2022-12-07T05:21:35;100643.19;;;-0.35;100.00
69957;BME280;57283;54.816;9.482;2022-12-07T05:24:04;100645.69;;;-0.38;100.00
69957;BME280;57283;54.816;9.482;2022-12-07T05:26:32;100617.22;;;-0.53;100.00
69957;BME280;57283;54.816;9.482;2022-12-07T05:29:02;100644.81;;;-0.39;100.00
69957;BME280;57283;54.816;9.482;2022-12-07T05:31:30;100629.53;;;-0.31;100.00
69957;BME280;57283;54.816;9.482;2022-12-07T05:34:00;100635.72;;;-0.18;100.00
69957;BME280;57283;54.816;9.482;2022-12-07T05:36:27;100638.28;;;-0.20;100.00
69957;BME280;57283;54.816;9.482;2022-12-07T05:38:57;100636.50;;;-0.24;100.00
69957;BME280;57283;54.816;9.482;2022-12-07T05:41:25;100633.97;;;-0.21;100.00
69957;BME280;57283;54.816;9.482;2022-12-07T05:44:13;100623.69;;;-0.22;100.00
69957;BME280;57283;54.816;9.482;2022-12-07T05:46:40;100626.19;;;-0.27;100.00
69957;BME280;57283;54.816;9.482;2022-12-07T05:49:08;100631.38;;;-0.24;100.00
69957;BME280;57283;54.816;9.482;2022-12-07T05:51:36;100624.44;;;-0.28;100.00
69957;BME280;57283;54.816;9.482;2022-12-07T05:54:04;100622.81;;;-0.23;100.00
69957;BME280;57283;54.816;9.482;2022-12-07T05:56:32;100596.94;;;-0.38;100.00
69957;BME280;57283;54.816;9.482;2022-12-07T05:59:00;100628.78;;;-0.24;100.00
69957;BME280;57283;54.816;9.482;2022-12-07T06:01:47;100609.81;;;-0.33;100.00
69957;BME280;57283;54.816;9.482;2022-12-07T06:04:16;100607.28;;;-0.32;100.00
69957;BME280;57283;54.816;9.482;2022-12-07T06:06:43;100610.84;;;-0.24;100.00
69957;BME280;57283;54.816;9.482;2022-12-07T06:09:12;100616.06;;;-0.18;100.00
69957;BME280;57283;54.816;9.482;2022-12-07T06:11:40;100610.03;;;-0.20;100.00
69957;BME280;57283;54.816;9.482;2022-12-07T06:14:26;100616.06;;;-0.18;100.00
69957;BME280;57283;54.816;9.482;2022-12-07T06:16:55;100605.69;;;-0.24;100.00
69957;BME280;57283;54.816;9.482;2022-12-07T06:19:23;100610.03;;;-0.21;100.00
69957;BME280;57283;54.816;9.482;2022-12-07T06:21:51;100509.97;;;-0.79;100.00
69957;BME280;57283;54.816;9.482;2022-12-07T06:24:19;100620.28;;;-0.21;100.00
69957;BME280;57283;54.816;9.482;2022-12-07T06:26:47;100615.16;;;-0.21;100.00
69957;BME280;57283;54.816;9.482;2022-12-07T06:29:16;100622.06;;;-0.17;100.00
69957;BME280;57283;54.816;9.482;2022-12-07T06:31:44;100617.78;;;-0.15;100.00
69957;BME280;57283;54.816;9.482;2022-12-07T06:34:15;100620.41;;;-0.12;100.00
69957;BME280;57283;54.816;9.482;2022-12-07T06:36:43;100626.44;;;-0.09;100.00
69957;BME280;57283;54.816;9.482;2022-12-07T06:39:12;100623.03;;;-0.08;100.00
69957;BME280;57283;54.816;9.482;2022-12-07T06:41:39;100617.88;;;-0.11;100.00
69957;BME280;57283;54.816;9.482;2022-12-07T06:44:07;100623.00;;;-0.11;100.00
69957;BME280;57283;54.816;9.482;2022-12-07T06:46:35;100623.03;;;-0.08;100.00
69957;BME280;57283;54.816;9.482;2022-12-07T06:49:04;100616.09;;;-0.15;100.00
69957;BME280;57283;54.816;9.482;2022-12-07T06:51:34;100622.94;;;-0.14;100.00
69957;BME280;57283;54.816;9.482;2022-12-07T06:54:03;100582.34;;;-0.42;100.00
69957;BME280;57283;54.816;9.482;2022-12-07T06:56:31;100628.03;;;-0.17;100.00
69957;BME280;57283;54.816;9.482;2022-12-07T06:58:59;100623.78;;;-0.15;100.00
69957;BME280;57283;54.816;9.482;2022-12-07T07:01:26;100621.97;;;-0.22;100.00
69957;BME280;57283;54.816;9.482;2022-12-07T07:03:54;100621.09;;;-0.24;100.00
69957;BME280;57283;54.816;9.482;2022-12-07T07:06:22;100621.03;;;-0.28;100.00
69957;BME280;57283;54.816;9.482;2022-12-07T07:08:52;100619.31;;;-0.28;100.00
69957;BME280;57283;54.816;9.482;2022-12-07T07:11:20;100621.00;;;-0.30;100.00
69957;BME280;57283;54.816;9.482;2022-12-07T07:13:49;100626.22;;;-0.24;100.00
69957;BME280;57283;54.816;9.482;2022-12-07T07:16:17;100622.72;;;-0.29;100.00
69957;BME280;57283;54.816;9.482;2022-12-07T07:18:44;100629.63;;;-0.25;100.00
69957;BME280;57283;54.816;9.482;2022-12-07T07:21:12;100625.47;;;-0.18;100.00
69957;BME280;57283;54.816;9.482;2022-12-07T07:23:40;100626.19;;;-0.25;100.00
69957;BME280;57283;54.816;9.482;2022-12-07T07:26:09;100626.22;;;-0.24;100.00
69957;BME280;57283;54.816;9.482;2022-12-07T07:28:38;100622.81;;;-0.23;100.00
69957;BME280;57283;54.816;9.482;2022-12-07T07:31:06;100630.56;;;-0.20;100.00
69957;BME280;57283;54.816;9.482;2022-12-07T07:33:34;100628.00;;;-0.20;100.00
69957;BME280;57283;54.816;9.482;2022-12-07T07:36:02;100630.63;;;-0.15;100.00
69957;BME280;57283;54.816;9.482;2022-12-07T07:38:30;100628.88;;;-0.16;100.00
69957;BME280;57283;54.816;9.482;2022-12-07T07:40:58;100628.13;;;-0.11;100.00
69957;BME280;57283;54.816;9.482;2022-12-07T07:43:27;100624.72;;;-0.10;100.00
69957;BME280;57283;54.816;9.482;2022-12-07T07:45:55;100620.53;;;-0.05;100.00
69957;BME280;57283;54.816;9.482;2022-12-07T07:48:23;100606.81;;;-0.07;100.00
69957;BME280;57283;54.816;9.482;2022-12-07T07:50:51;100623.25;;;0.08;100.00
69957;BME280;57283;54.816;9.482;2022-12-07T07:53:19;100621.56;;;0.10;100.00
69957;BME280;57283;54.816;9.482;2022-12-07T07:55:51;100614.81;;;0.18;100.00
69957;BME280;57283;54.816;9.482;2022-12-07T07:58:20;100627.78;;;0.25;100.00
69957;BME280;57283;54.816;9.482;2022-12-07T08:00:49;100621.88;;;0.31;100.00
69957;BME280;57283;54.816;9.482;2022-12-07T08:03:17;100623.75;;;0.44;100.00
69957;BME280;57283;54.816;9.482;2022-12-07T08:05:45;100633.25;;;0.50;100.00
69957;BME280;57283;54.816;9.482;2022-12-07T08:08:13;100627.25;;;0.52;100.00
69957;BME280;57283;54.816;9.482;2022-12-07T08:10:41;100632.47;;;0.58;100.00
69957;BME280;57283;54.816;9.482;2022-12-07T08:13:09;100629.84;;;0.54;100.00
69957;BME280;57283;54.816;9.482;2022-12-07T08:15:41;100615.19;;;0.45;100.00
69957;BME280;57283;54.816;9.482;2022-12-07T08:18:12;100582.50;;;0.32;100.00
69957;BME280;57283;54.816;9.482;2022-12-07T08:20:41;100630.78;;;0.60;100.00
69957;BME280;57283;54.816;9.482;2022-12-07T08:23:10;100641.06;;;0.60;100.00
69957;BME280;57283;54.816;9.482;2022-12-07T08:25:38;100613.50;;;0.47;100.00
69957;BME280;57283;54.816;9.482;2022-12-07T08:28:06;100640.31;;;0.70;100.00
69957;BME280;57283;54.816;9.482;2022-12-07T08:30:34;100636.00;;;0.65;100.00
69957;BME280;57283;54.816;9.482;2022-12-07T08:33:02;100591.97;;;0.39;100.00
69957;BME280;57283;54.816;9.482;2022-12-07T08:35:33;100630.75;;;0.59;100.00
69957;BME280;57283;54.816;9.482;2022-12-07T08:38:02;100634.28;;;0.68;100.00
69957;BME280;57283;54.816;9.482;2022-12-07T08:40:30;100635.34;;;0.83;100.00
69957;BME280;57283;54.816;9.482;2022-12-07T08:42:58;100628.31;;;0.69;100.00
69957;BME280;57283;54.816;9.482;2022-12-07T08:45:26;100637.94;;;0.89;100.00
69957;BME280;57283;54.816;9.482;2022-12-07T08:47:57;100613.72;;;0.65;100.00
69957;BME280;57283;54.816;9.482;2022-12-07T08:50:27;100603.44;;;0.68;100.00
69957;BME280;57283;54.816;9.482;2022-12-07T08:52:58;100638.94;;;1.00;100.00
69957;BME280;57283;54.816;9.482;2022-12-07T08:55:27;100632.94;;;1.02;100.00
69957;BME280;57283;54.816;9.482;2022-12-07T08:57:57;100629.50;;;0.99;100.00
69957;BME280;57283;54.816;9.482;2022-12-07T09:00:26;100639.13;;;1.21;100.00
69957;BME280;57283;54.816;9.482;2022-12-07T09:02:54;100617.59;;;1.10;100.00
69957;BME280;57283;54.816;9.482;2022-12-07T09:05:22;100641.75;;;1.24;100.00
69957;BME280;57283;54.816;9.482;2022-12-07T09:07:51;100630.66;;;1.34;100.00
69957;BME280;57283;54.816;9.482;2022-12-07T09:10:23;100638.56;;;1.56;100.00
69957;BME280;57283;54.816;9.482;2022-12-07T09:12:51;100634.34;;;1.61;100.00
69957;BME280;57283;54.816;9.482;2022-12-07T09:15:19;100607.56;;;1.40;100.00
69957;BME280;57283;54.816;9.482;2022-12-07T09:17:47;100632.56;;;1.55;100.00
69957;BME280;57283;54.816;9.482;2022-12-07T09:20:15;100625.84;;;1.72;100.00
69957;BME280;57283;54.816;9.482;2022-12-07T09:22:43;100625.06;;;1.87;100.00
69957;BME280;57283;54.816;9.482;2022-12-07T09:25:10;100626.00;;;1.97;100.00
69957;BME280;57283;54.816;9.482;2022-12-07T09:27:40;100626.81;;;1.88;100.00
69957;BME280;57283;54.816;9.482;2022-12-07T09:30:09;100623.44;;;1.98;100.00
69957;BME280;57283;54.816;9.482;2022-12-07T09:32:37;100632.16;;;2.25;100.00
69957;BME280;57283;54.816;9.482;2022-12-07T09:35:05;100633.16;;;2.47;100.00
69957;BME280;57283;54.816;9.482;2022-12-07T09:37:33;100630.47;;;2.27;100.00
69957;BME280;57283;54.816;9.482;2022-12-07T09:40:04;100633.91;;;2.26;100.00
69957;BME280;57283;54.816;9.482;2022-12-07T09:42:34;100635.78;;;2.60;100.00
69957;BME280;57283;54.816;9.482;2022-12-07T09:45:10;100627.22;;;2.73;100.00
69957;BME280;57283;54.816;9.482;2022-12-07T09:47:39;100629.72;;;2.49;100.00
69957;BME280;57283;54.816;9.482;2022-12-07T09:50:13;100601.38;;;2.51;100.00
69957;BME280;57283;54.816;9.482;2022-12-07T09:52:42;100622.09;;;2.79;100.00
69957;BME280;57283;54.816;9.482;2022-12-07T09:55:13;100635.81;;;2.72;100.00
69957;BME280;57283;54.816;9.482;2022-12-07T09:57:42;100620.34;;;2.75;100.00
69957;BME280;57283;54.816;9.482;2022-12-07T10:00:15;100622.91;;;2.65;100.00
69957;BME280;57283;54.816;9.482;2022-12-07T10:02:44;100632.38;;;2.75;100.00
69957;BME280;57283;54.816;9.482;2022-12-07T10:05:16;100619.47;;;2.70;100.00
69957;BME280;57283;54.816;9.482;2022-12-07T10:07:50;100635.81;;;2.72;100.00
69957;BME280;57283;54.816;9.482;2022-12-07T10:10:20;100522.25;;;2.18;100.00
69957;BME280;57283;54.816;9.482;2022-12-07T10:12:57;100624.69;;;2.89;100.00
69957;BME280;57283;54.816;9.482;2022-12-07T10:18:29;100636.75;;;2.97;100.00
69957;BME280;57283;54.816;9.482;2022-12-07T10:21:03;100578.84;;;2.08;100.00
69957;BME280;57283;54.816;9.482;2022-12-07T10:23:34;100622.91;;;2.71;100.00
69957;BME280;57283;54.816;9.482;2022-12-07T10:26:20;100597.94;;;2.56;100.00
69957;BME280;57283;54.816;9.482;2022-12-07T10:28:49;100634.91;;;2.57;100.00
69957;BME280;57283;54.816;9.482;2022-12-07T10:31:19;100623.00;;;3.00;100.00
69957;BME280;57283;54.816;9.482;2022-12-07T10:33:51;100622.03;;;2.61;100.00
69957;BME280;57283;54.816;9.482;2022-12-07T10:36:22;100558.41;;;2.48;100.00
69957;BME280;57283;54.816;9.482;2022-12-07T10:38:52;100635.84;;;2.82;100.00
69957;BME280;57283;54.816;9.482;2022-12-07T10:41:20;100625.53;;;2.88;100.00
69957;BME280;57283;54.816;9.482;2022-12-07T10:43:50;100625.53;;;2.82;100.00
69957;BME280;57283;54.816;9.482;2022-12-07T10:46:36;100616.97;;;3.04;100.00
69957;BME280;57283;54.816;9.482;2022-12-07T10:49:22;100618.66;;;2.87;100.00
69957;BME280;57283;54.816;9.482;2022-12-07T10:52:00;100605.78;;;2.84;100.00
69957;BME280;57283;54.816;9.482;2022-12-07T10:54:41;100597.94;;;2.49;100.00
69957;BME280;57283;54.816;9.482;2022-12-07T10:57:33;100611.66;;;2.52;100.00
69957;BME280;57283;54.816;9.482;2022-12-07T11:00:13;100599.75;;;2.78;100.00
69957;BME280;57283;54.816;9.482;2022-12-07T11:05:54;100597.19;;;2.83;100.00
69957;BME280;57283;54.816;9.482;2022-12-07T11:08:39;100620.28;;;2.54;100.00
69957;BME280;57283;54.816;9.482;2022-12-07T11:11:14;100612.56;;;2.51;100.00
69957;BME280;57283;54.816;9.482;2022-12-07T11:13:49;100572.97;;;2.41;100.00
69957;BME280;57283;54.816;9.482;2022-12-07T11:16:42;100589.38;;;2.69;100.00
69957;BME280;57283;54.816;9.482;2022-12-07T11:19:49;100620.31;;;2.63;100.00
69957;BME280;57283;54.816;9.482;2022-12-07T11:22:31;100616.03;;;2.71;100.00
69957;BME280;57283;54.816;9.482;2022-12-07T11:25:16;100617.75;;;2.62;100.00
69957;BME280;57283;54.816;9.482;2022-12-07T11:28:06;100589.28;;;2.39;100.00
69957;BME280;57283;54.816;9.482;2022-12-07T11:30:43;100585.78;;;2.22;100.00
69957;BME280;57283;54.816;9.482;2022-12-07T11:33:17;100610.75;;;2.32;100.00
69957;BME280;57283;54.816;9.482;2022-12-07T11:35:57;100603.97;;;2.57;100.00
69957;BME280;57283;54.816;9.482;2022-12-07T11:38:37;100601.44;;;2.73;100.00
69957;BME280;57283;54.816;9.482;2022-12-07T11:41:09;100602.28;;;2.66;100.00
69957;BME280;57283;54.816;9.482;2022-12-07T11:43:52;100599.56;;;2.36;100.00
69957;BME280;57283;54.816;9.482;2022-12-07T11:46:24;100591.94;;;2.51;100.00
69957;BME280;57283;54.816;9.482;2022-12-07T11:49:00;100598.72;;;2.38;100.00
69957;BME280;57283;54.816;9.482;2022-12-07T11:51:33;100590.13;;;2.36;100.00
69957;BME280;57283;54.816;9.482;2022-12-07T11:54:12;100592.63;;;2.14;100.00
69957;BME280;57283;54.816;9.482;2022-12-07T11:56:42;100606.41;;;2.25;100.00
69957;BME280;57283;54.816;9.482;2022-12-07T11:59:13;100604.69;;;2.27;100.00
69957;BME280;57283;54.816;9.482;2022-12-07T12:01:52;100594.25;;;1.96;100.00
69957;BME280;57283;54.816;9.482;2022-12-07T12:04:27;100603.84;;;2.26;100.00
69957;BME280;57283;54.816;9.482;2022-12-07T12:06:58;100604.69;;;2.24;100.00
69957;BME280;57283;54.816;9.482;2022-12-07T12:09:49;100604.59;;;2.05;100.00
69957;BME280;57283;54.816;9.482;2022-12-07T12:15:38;100600.34;;;2.18;100.00
69957;BME280;57283;54.816;9.482;2022-12-07T12:18:32;100607.38;;;2.54;100.00
69957;BME280;57283;54.816;9.482;2022-12-07T12:21:07;100604.75;;;2.42;100.00
69957;BME280;57283;54.816;9.482;2022-12-07T12:23:41;100573.00;;;2.52;100.00
69957;BME280;57283;54.816;9.482;2022-12-07T12:26:17;100592.94;;;3.26;100.00
69957;BME280;57283;54.816;9.482;2022-12-07T12:28:52;100591.19;;;3.22;100.00
69957;BME280;57283;54.816;9.482;2022-12-07T12:31:34;100589.44;;;2.94;100.00
69957;BME280;57283;54.816;9.482;2022-12-07T12:34:29;100598.88;;;2.81;100.00
69957;BME280;57283;54.816;9.482;2022-12-07T12:36:52;100592.06;;;3.23;100.00
69957;BME280;57283;54.816;9.482;2022-12-07T12:39:20;100596.19;;;2.41;100.00
69957;BME280;57283;54.816;9.482;2022-12-07T12:45:17;100584.31;;;3.09;100.00
69957;BME280;57283;54.816;9.482;2022-12-07T12:47:55;100584.22;;;4.12;100.00
69957;BME280;57283;54.816;9.482;2022-12-07T12:50:27;100575.19;;;4.93;100.00
69957;BME280;57283;54.816;9.482;2022-12-07T12:53:25;100576.31;;;5.70;100.00
69957;BME280;57283;54.816;9.482;2022-12-07T12:56:25;100572.78;;;5.77;100.00
69957;BME280;57283;54.816;9.482;2022-12-07T12:59:23;100579.50;;;5.99;100.00
69957;BME280;57283;54.816;9.482;2022-12-07T13:01:54;100566.34;;;6.83;100.00
69957;BME280;57283;54.816;9.482;2022-12-07T13:04:38;100565.53;;;7.35;100.00
69957;BME280;57283;54.816;9.482;2022-12-07T13:07:12;100566.31;;;6.86;100.00
69957;BME280;57283;54.816;9.482;2022-12-07T13:09:43;100575.81;;;5.25;100.00
69957;BME280;57283;54.816;9.482;2022-12-07T13:12:14;100577.75;;;6.01;100.00
69957;BME280;57283;54.816;9.482;2022-12-07T13:14:56;100570.91;;;5.94;100.00
69957;BME280;57283;54.816;9.482;2022-12-07T13:17:59;100566.63;;;5.90;100.00
69957;BME280;57283;54.816;9.482;2022-12-07T13:20:46;100567.78;;;5.55;100.00
69957;BME280;57283;54.816;9.482;2022-12-07T13:23:19;100572.88;;;4.51;100.00